createdAt,value
2018-07-09T00:00:27.471Z,1019.2
2018-07-09T00:05:27.496Z,1019.2
2018-07-09T00:10:27.301Z,1019.2
2018-07-09T00:15:27.451Z,1019.2
2018-07-09T00:20:27.407Z,1019.2
2018-07-09T00:25:27.323Z,1019.2
2018-07-09T00:30:39.990Z,1019.1
2018-07-09T00:35:39.558Z,1019.1
2018-07-09T00:40:39.692Z,1019.1
2018-07-09T00:45:39.546Z,1019
2018-07-09T00:50:39.779Z,1019.1
2018-07-09T00:55:39.710Z,1019.1
2018-07-09T01:00:39.576Z,1019.1
2018-07-09T01:05:39.931Z,1019.1
2018-07-09T01:10:39.661Z,1019.1
2018-07-09T01:15:52.614Z,1019.2
2018-07-09T01:20:52.248Z,1019.2
2018-07-09T01:25:52.412Z,1019.1
2018-07-09T01:30:52.372Z,1019.1
2018-07-09T01:35:52.367Z,1019
2018-07-09T01:40:56.116Z,1019
2018-07-09T01:45:55.834Z,1019
2018-07-09T01:50:56.077Z,1019
2018-07-09T01:55:55.910Z,1018.9
2018-07-09T02:00:56.045Z,1018.9
2018-07-09T02:05:56.070Z,1018.9
2018-07-09T02:10:56.018Z,1019
2018-07-09T02:15:56.688Z,1018.9
2018-07-09T02:20:56.636Z,1018.9
2018-07-09T02:26:09.426Z,1018.9
2018-07-09T02:31:09.603Z,1018.9
2018-07-09T02:36:09.242Z,1018.9
2018-07-09T02:41:09.163Z,1019
2018-07-09T02:46:09.350Z,1018.9
2018-07-09T02:51:09.276Z,1019
2018-07-09T02:56:09.133Z,1019
2018-07-09T03:01:11.802Z,1019
2018-07-09T03:06:10.818Z,1019
2018-07-09T03:11:23.659Z,1019
2018-07-09T03:16:23.647Z,1019
2018-07-09T03:21:23.648Z,1019.1
2018-07-09T03:26:23.388Z,1019.1
2018-07-09T03:31:23.337Z,1019.1
2018-07-09T03:36:23.505Z,1019.1
2018-07-09T03:41:23.370Z,1019.1
2018-07-09T03:46:24.206Z,1019.1
2018-07-09T03:51:24.136Z,1019.2
2018-07-09T03:56:36.329Z,1019.2
2018-07-09T04:01:36.251Z,1019.2
2018-07-09T04:06:36.226Z,1019.3
2018-07-09T04:11:38.877Z,1019.2
2018-07-09T04:16:36.251Z,1019.2
2018-07-09T04:21:36.220Z,1019.1
2018-07-09T04:26:36.018Z,1019.1
2018-07-09T04:31:37.211Z,1019.2
2018-07-09T04:36:37.040Z,1019.2
2018-07-09T04:41:49.479Z,1019.2
2018-07-09T04:46:49.363Z,1019.3
2018-07-09T04:51:49.509Z,1019.2
2018-07-09T04:56:49.445Z,1019.1
2018-07-09T05:01:49.403Z,1019.1
2018-07-09T05:06:49.535Z,1018.8
2018-07-09T05:11:49.351Z,1018.7
2018-07-09T05:16:50.167Z,1018.6
2018-07-09T05:21:49.855Z,1018.5
2018-07-09T05:27:02.299Z,1018.6
2018-07-09T05:32:02.232Z,1018.4
2018-07-09T05:37:02.236Z,1018.5
2018-07-09T05:42:02.275Z,1018.3
2018-07-09T05:47:02.551Z,1018.4
2018-07-09T05:52:02.671Z,1018.2
2018-07-09T05:57:02.545Z,1018.1
2018-07-09T06:02:02.445Z,1018.1
2018-07-09T06:07:02.340Z,1018
2018-07-09T06:12:02.571Z,1018
2018-07-09T06:17:02.606Z,1018
2018-07-09T06:22:02.396Z,1018.1
2018-07-09T06:27:03.235Z,1018
2018-07-09T06:32:03.101Z,1018
2018-07-09T06:37:15.404Z,1018
2018-07-09T06:42:15.392Z,1017.9
2018-07-09T06:47:15.178Z,1017.9
2018-07-09T06:52:15.374Z,1018
2018-07-09T06:57:25.402Z,1018
2018-07-09T07:02:25.848Z,1017.9
2018-07-09T07:07:25.415Z,1017.9
2018-07-09T07:12:25.138Z,1017.9
2018-07-09T07:17:25.178Z,1017.8
2018-07-09T07:22:25.958Z,1017.8
2018-07-09T07:27:26.796Z,1017.7
2018-07-09T07:32:27.301Z,1017.8
2018-07-09T07:37:27.135Z,1017.7
2018-07-09T07:42:39.810Z,1017.7
2018-07-09T07:47:40.785Z,1017.7
2018-07-09T07:52:39.598Z,1017.7
2018-07-09T07:57:39.716Z,1017.5
2018-07-09T08:02:39.882Z,1017.5
2018-07-09T08:07:39.611Z,1017.4
2018-07-09T08:13:29.426Z,1017.3
2018-07-09T08:17:40.382Z,1017.3
2018-07-09T08:22:40.241Z,1017.2
2018-07-09T08:27:53.110Z,1017.2
2018-07-09T08:32:52.839Z,1017
2018-07-09T08:37:53.405Z,1017
2018-07-09T08:42:52.815Z,1017.1
2018-07-09T08:47:52.970Z,1017
2018-07-09T08:52:52.837Z,1017
2018-07-09T08:57:52.916Z,1017
2018-07-09T09:02:52.889Z,1017.2
2018-07-09T09:07:52.815Z,1017
2018-07-09T09:12:53.040Z,1017.1
2018-07-09T09:17:52.967Z,1017
2018-07-09T09:22:53.018Z,1017
2018-07-09T09:27:53.423Z,1016.9
2018-07-09T09:32:53.287Z,1016.8
2018-07-09T09:38:06.101Z,1016.8
2018-07-09T09:43:06.177Z,1016.8
2018-07-09T09:48:06.005Z,1016.8
2018-07-09T09:53:05.943Z,1016.6
2018-07-09T09:58:06.044Z,1016.6
2018-07-09T10:03:05.838Z,1016.7
2018-07-09T10:08:05.853Z,1016.6
2018-07-09T10:13:10.067Z,1016.8
2018-07-09T10:18:09.976Z,1016.5
2018-07-09T10:23:23.418Z,1016.6
2018-07-09T10:28:22.628Z,1016.6
2018-07-09T10:33:22.560Z,1016.8
2018-07-09T10:38:22.609Z,1016.8
2018-07-09T10:43:22.631Z,1016.8
2018-07-09T10:48:22.680Z,1016.6
2018-07-09T10:53:22.583Z,1016.6
2018-07-09T10:58:22.950Z,1016.5
2018-07-09T11:03:22.787Z,1016.4
2018-07-09T11:08:38.207Z,1016.6
2018-07-09T11:13:38.126Z,1016.5
2018-07-09T11:18:38.131Z,1016.6
2018-07-09T11:23:37.900Z,1016.5
2018-07-09T11:28:38.091Z,1016.2
2018-07-09T11:33:38.056Z,1016.2
2018-07-09T11:38:38.054Z,1016
2018-07-09T11:43:38.217Z,1016
2018-07-09T11:48:37.939Z,1016.1
2018-07-09T11:53:50.896Z,1016
2018-07-09T11:58:50.732Z,1016
2018-07-09T12:03:50.489Z,1016.1
2018-07-09T12:08:50.477Z,1016
2018-07-09T12:13:50.717Z,1016.1
2018-07-09T12:18:50.619Z,1016
2018-07-09T12:23:50.496Z,1016.1
2018-07-09T12:28:52.515Z,1016.2
2018-07-09T12:33:51.983Z,1016.1
2018-07-09T12:39:04.481Z,1016.1
2018-07-09T12:44:04.196Z,1016
2018-07-09T12:49:04.343Z,1016
2018-07-09T12:54:04.397Z,1015.9
2018-07-09T12:59:04.259Z,1015.7
2018-07-09T13:04:04.204Z,1015.6
2018-07-09T13:09:04.387Z,1015.5
2018-07-09T13:14:04.352Z,1015.3
2018-07-09T13:19:04.354Z,1015.3
2018-07-09T13:24:04.362Z,1015.2
2018-07-09T13:29:04.244Z,1015.1
2018-07-09T13:34:04.230Z,1015.2
2018-07-09T13:39:04.891Z,1015.1
2018-07-09T13:44:04.752Z,1015.1
2018-07-09T13:49:17.652Z,1015.1
2018-07-09T13:54:17.607Z,1015.1
2018-07-09T13:59:17.510Z,1015.1
2018-07-09T14:04:17.872Z,1015
2018-07-09T14:09:17.598Z,1014.7
2018-07-09T14:14:17.530Z,1014.7
2018-07-09T14:19:17.436Z,1014.5
2018-07-09T14:24:19.209Z,1014.6
2018-07-09T14:29:18.914Z,1014.6
2018-07-09T14:34:31.945Z,1014.5
2018-07-09T14:39:31.844Z,1014.5
2018-07-09T14:44:31.690Z,1014.5
2018-07-09T14:49:31.813Z,1014.6
2018-07-09T14:54:31.870Z,1014.5
2018-07-09T14:59:31.673Z,1014.5
2018-07-09T15:04:31.787Z,1014.4
2018-07-09T15:09:32.079Z,1014.4
2018-07-09T15:14:31.899Z,1014.5
2018-07-09T15:19:31.901Z,1014.6
2018-07-09T15:24:31.967Z,1014.5
2018-07-09T15:29:32.003Z,1014.4
2018-07-09T15:34:32.680Z,1014.5
2018-07-09T15:39:32.402Z,1014.5
2018-07-09T15:44:45.845Z,1014.4
2018-07-09T15:49:45.513Z,1014.4
2018-07-09T15:54:45.755Z,1014.5
2018-07-09T15:59:45.667Z,1014.4
2018-07-09T16:04:45.737Z,1014.4
2018-07-09T16:09:45.569Z,1014.4
2018-07-09T16:14:45.691Z,1014.4
2018-07-09T16:19:48.336Z,1014.5
2018-07-09T16:24:48.250Z,1014.5
2018-07-09T16:29:58.726Z,1014.5
2018-07-09T16:34:58.514Z,1014.6
2018-07-09T16:39:58.905Z,1014.5
2018-07-09T16:44:58.468Z,1014.6
2018-07-09T16:49:58.457Z,1014.6
2018-07-09T16:54:58.670Z,1014.5
2018-07-09T16:59:58.588Z,1014.6
2018-07-09T17:04:59.240Z,1014.6
2018-07-09T17:09:59.211Z,1014.6
2018-07-09T17:15:11.924Z,1014.6
2018-07-09T17:20:11.619Z,1014.7
2018-07-09T17:25:11.660Z,1014.6
2018-07-09T17:30:11.652Z,1014.8
2018-07-09T17:35:11.899Z,1014.8
2018-07-09T17:40:11.621Z,1014.9
2018-07-09T17:45:11.673Z,1014.9
2018-07-09T17:50:12.314Z,1014.8
2018-07-09T17:55:11.830Z,1014.9
2018-07-09T18:00:23.913Z,1014.9
2018-07-09T18:05:23.637Z,1014.9
2018-07-09T18:10:24.044Z,1015
2018-07-09T18:15:23.655Z,1014.9
2018-07-09T18:20:23.909Z,1015
2018-07-09T18:25:24.086Z,1015
2018-07-09T18:30:23.807Z,1015
2018-07-09T18:35:26.009Z,1015
2018-07-09T18:40:25.516Z,1014.9
2018-07-09T18:45:37.012Z,1015
2018-07-09T18:50:36.738Z,1014.9
2018-07-09T18:55:36.730Z,1015
2018-07-09T19:00:36.949Z,1015.1
2018-07-09T19:05:36.773Z,1015.1
2018-07-09T19:10:36.806Z,1015.2
2018-07-09T19:15:38.187Z,1015.2
2018-07-09T19:20:38.449Z,1015.3
2018-07-09T19:25:49.709Z,1015.4
2018-07-09T19:30:52.442Z,1015.4
2018-07-09T19:35:51.188Z,1015.4
2018-07-09T19:40:51.076Z,1015.5
2018-07-09T19:45:51.467Z,1015.6
2018-07-09T19:50:51.058Z,1015.6
2018-07-09T19:55:51.102Z,1015.6
2018-07-09T20:00:51.084Z,1015.7
2018-07-09T20:05:51.214Z,1015.7
2018-07-09T20:10:51.050Z,1015.8
2018-07-09T20:15:51.120Z,1015.9
2018-07-09T20:20:51.665Z,1015.8
2018-07-09T20:25:51.561Z,1015.8
2018-07-09T20:30:52.742Z,1015.8
2018-07-09T20:35:53.310Z,1015.8
2018-07-09T20:41:07.480Z,1015.7
2018-07-09T20:46:07.716Z,1015.7
2018-07-09T20:51:06.970Z,1015.7
2018-07-09T20:56:06.610Z,1015.7
2018-07-09T21:01:07.986Z,1015.6
2018-07-09T21:06:06.305Z,1015.7
2018-07-09T21:11:06.313Z,1015.8
2018-07-09T21:16:12.386Z,1015.7
2018-07-09T21:21:11.321Z,1015.8
2018-07-09T21:26:23.813Z,1015.7
2018-07-09T21:31:23.689Z,1015.7
2018-07-09T21:36:23.700Z,1015.7
2018-07-09T21:41:23.781Z,1015.7
2018-07-09T21:46:23.821Z,1015.7
2018-07-09T21:51:25.391Z,1015.7
2018-07-09T21:56:25.762Z,1015.6
2018-07-09T22:01:25.306Z,1015.7
2018-07-09T22:06:25.342Z,1015.6
2018-07-09T22:11:25.182Z,1015.5
2018-07-09T22:16:25.170Z,1015.5
2018-07-09T22:21:25.355Z,1015.5
2018-07-09T22:26:29.679Z,1015.5
2018-07-09T22:31:29.387Z,1015.5
2018-07-09T22:36:40.192Z,1015.4
2018-07-09T22:41:39.939Z,1015.3
2018-07-09T22:46:40.040Z,1015.3
2018-07-09T22:51:39.893Z,1015.3
2018-07-09T22:56:40.096Z,1015.2
2018-07-09T23:01:39.913Z,1015.2
2018-07-09T23:06:40.062Z,1015.1
2018-07-09T23:11:42.793Z,1015.1
2018-07-09T23:16:42.907Z,1015.1
2018-07-09T23:21:53.181Z,1015.1
2018-07-09T23:26:52.949Z,1015.1
2018-07-09T23:31:53.030Z,1015
2018-07-09T23:36:53.120Z,1015
2018-07-09T23:41:53.112Z,1015
2018-07-09T23:46:53.029Z,1015
2018-07-09T23:51:53.078Z,1014.9
2018-07-09T23:56:55.861Z,1014.9
